Alpachiri, Argentina
Current Conditions -  °F | °C
As of 1:00 PM on Friday 21 Nov 2014 (Local Time) from SANT Reporting Station
Drizzle Drizzle  
Wind Chill: 64°   Ceiling: 700
Heat Index: 64°   Visibility: 2.5mi
Dew Point: 61°   Wind: 9mph
Humidity: 88%   Direction: 140°SE
Pressure: 30"   Gusts: NA
Location:  27.33°S, 65.75°W
Report Text: SANT 211600Z 14008KT 4000 -DZ BKN007 OVC035 18/16 Q1016
Loading
Personal Weather Stations






























Interactive Weather Map New forecast layout! Learn more

10-Day Weather Forecast

Advertisements
Track Severe Weather on mobile